createdAt,value
2018-12-08T00:00:02.573Z,6.81
2018-12-08T00:01:02.720Z,6.86
2018-12-08T00:02:02.865Z,6.94
2018-12-08T00:03:03.012Z,6.87
2018-12-08T00:04:03.160Z,6.84
2018-12-08T00:05:03.307Z,6.84
2018-12-08T00:06:03.452Z,6.86
2018-12-08T00:07:03.599Z,6.84
2018-12-08T00:08:03.748Z,6.81
2018-12-08T00:09:03.895Z,6.90
2018-12-08T00:10:04.044Z,6.84
2018-12-08T00:11:04.190Z,6.91
2018-12-08T00:12:04.333Z,6.94
2018-12-08T00:13:04.548Z,7.01
2018-12-08T00:14:04.629Z,7.07
2018-12-08T00:15:04.773Z,7.05
2018-12-08T00:16:04.921Z,7.02
2018-12-08T00:17:05.067Z,7.08
2018-12-08T00:18:05.218Z,7.23
2018-12-08T00:19:05.364Z,7.17
2018-12-08T00:20:05.518Z,7.08
2018-12-08T00:21:05.662Z,7.05
2018-12-08T00:22:05.805Z,7.08
2018-12-08T00:23:05.954Z,7.05
2018-12-08T00:24:06.100Z,7.09
2018-12-08T00:25:06.247Z,7.12
2018-12-08T00:26:06.392Z,7.04
2018-12-08T00:27:06.541Z,7.08
2018-12-08T00:28:06.684Z,7.02
2018-12-08T00:29:06.834Z,6.97
2018-12-08T00:30:06.979Z,7.07
2018-12-08T00:31:07.126Z,7.05
2018-12-08T00:32:07.271Z,7.04
2018-12-08T00:33:07.422Z,6.97
2018-12-08T00:34:07.566Z,6.97
2018-12-08T00:35:07.709Z,7.01
2018-12-08T00:36:07.858Z,7.07
2018-12-08T00:37:08.009Z,7.08
2018-12-08T00:38:08.154Z,7.05
2018-12-08T00:39:08.299Z,7.09
2018-12-08T00:40:08.446Z,7.05
2018-12-08T00:41:08.592Z,7.05
2018-12-08T00:42:08.739Z,7.02
2018-12-08T00:43:08.887Z,6.94
2018-12-08T00:44:09.034Z,6.83
2018-12-08T00:45:09.178Z,7.01
2018-12-08T00:46:09.327Z,7.01
2018-12-08T00:47:09.471Z,6.98
2018-12-08T00:48:09.616Z,6.90
2018-12-08T00:49:09.766Z,6.95
2018-12-08T00:50:09.914Z,6.95
2018-12-08T00:51:10.061Z,6.81
2018-12-08T00:52:10.208Z,6.84
2018-12-08T00:53:10.355Z,6.89
2018-12-08T00:54:10.502Z,6.97
2018-12-08T00:55:10.648Z,6.95
2018-12-08T00:56:10.796Z,6.86
2018-12-08T00:57:10.946Z,6.87
2018-12-08T00:58:11.090Z,6.83
2018-12-08T00:59:11.237Z,6.84
2018-12-08T01:00:11.383Z,6.86
2018-12-08T01:01:11.530Z,6.87
2018-12-08T01:02:11.675Z,6.73
2018-12-08T01:03:11.822Z,6.83
2018-12-08T01:04:11.966Z,6.77
2018-12-08T01:05:12.110Z,6.69
2018-12-08T01:06:12.257Z,6.72
2018-12-08T01:07:12.409Z,6.63
2018-12-08T01:08:12.555Z,6.62
2018-12-08T01:09:12.700Z,6.62
2018-12-08T01:10:12.860Z,6.56
2018-12-08T01:11:12.992Z,6.61
2018-12-08T01:12:13.140Z,6.54
2018-12-08T01:13:13.284Z,6.51
2018-12-08T01:14:13.431Z,6.56
2018-12-08T01:15:13.578Z,6.51
2018-12-08T01:16:13.723Z,6.43
2018-12-08T01:17:13.870Z,6.36
2018-12-08T01:18:14.016Z,6.43
2018-12-08T01:19:14.164Z,6.21
2018-12-08T01:20:14.311Z,6.21
2018-12-08T01:21:14.458Z,6.19
2018-12-08T01:22:14.605Z,6.25
2018-12-08T01:23:14.750Z,6.09
2018-12-08T01:24:14.897Z,6.11
2018-12-08T01:25:15.046Z,6.04
2018-12-08T01:26:15.190Z,6.03
2018-12-08T01:27:15.337Z,6.03
2018-12-08T01:28:15.482Z,6.04
2018-12-08T01:29:15.632Z,6.03
2018-12-08T01:30:15.776Z,6.00
2018-12-08T01:31:15.922Z,5.98
2018-12-08T01:32:16.068Z,6.00
2018-12-08T01:33:16.226Z,6.04
2018-12-08T01:34:16.346Z,5.96
2018-12-08T01:35:16.498Z,5.98
2018-12-08T01:36:16.641Z,5.92
2018-12-08T01:37:16.788Z,5.98
2018-12-08T01:38:16.934Z,6.00
2018-12-08T01:39:17.080Z,5.98
2018-12-08T01:40:17.230Z,6.06
2018-12-08T01:41:17.373Z,6.03
2018-12-08T01:42:17.520Z,6.07
2018-12-08T01:43:17.664Z,6.04
2018-12-08T01:44:17.808Z,6.10
2018-12-08T01:45:17.955Z,6.13
2018-12-08T01:46:18.101Z,6.19
2018-12-08T01:47:18.245Z,6.16
2018-12-08T01:48:18.390Z,6.18
2018-12-08T01:49:18.537Z,6.30
2018-12-08T01:50:18.684Z,6.29
2018-12-08T01:51:18.824Z,6.28
2018-12-08T01:52:18.973Z,6.28
2018-12-08T01:53:19.118Z,6.30
2018-12-08T01:54:19.263Z,6.29
2018-12-08T01:55:19.410Z,6.36
2018-12-08T01:56:19.555Z,6.35
2018-12-08T01:57:19.702Z,6.29
2018-12-08T01:58:19.846Z,6.29
2018-12-08T01:59:19.992Z,6.36
2018-12-08T02:00:20.137Z,6.30
2018-12-08T02:01:20.285Z,6.28
2018-12-08T02:02:20.434Z,6.36
2018-12-08T02:03:20.576Z,6.36
2018-12-08T02:04:20.721Z,6.36
2018-12-08T02:05:20.868Z,6.36
2018-12-08T02:06:21.017Z,6.47
2018-12-08T02:07:21.161Z,6.50
2018-12-08T02:08:21.308Z,6.53
2018-12-08T02:09:21.456Z,6.53
2018-12-08T02:10:21.601Z,6.58
2018-12-08T02:11:25.020Z,6.62
2018-12-08T02:12:21.897Z,6.53
2018-12-08T02:13:22.042Z,6.61
2018-12-08T02:14:22.187Z,6.65
2018-12-08T02:15:22.333Z,6.68
2018-12-08T02:16:22.476Z,6.65
2018-12-08T02:17:22.622Z,6.68
2018-12-08T02:18:22.772Z,6.69
2018-12-08T02:19:22.917Z,6.63
2018-12-08T02:20:23.065Z,6.59
2018-12-08T02:21:23.210Z,6.69
2018-12-08T02:22:23.358Z,6.68
2018-12-08T02:23:23.504Z,6.62
2018-12-08T02:24:23.650Z,6.53
2018-12-08T02:25:23.799Z,6.61
2018-12-08T02:26:24.042Z,6.58
2018-12-08T02:27:24.100Z,6.53
2018-12-08T02:28:24.247Z,6.54
2018-12-08T02:29:24.392Z,6.62
2018-12-08T02:30:24.544Z,6.56
2018-12-08T02:31:24.684Z,6.53
2018-12-08T02:32:24.832Z,6.61
2018-12-08T02:33:24.981Z,6.53
2018-12-08T02:34:25.123Z,6.54
2018-12-08T02:35:25.269Z,6.46
2018-12-08T02:36:25.415Z,6.58
2018-12-08T02:37:25.568Z,6.61
2018-12-08T02:38:25.705Z,6.54
2018-12-08T02:39:25.854Z,6.63
2018-12-08T02:40:25.999Z,6.63
2018-12-08T02:41:26.147Z,6.54
2018-12-08T02:42:26.292Z,6.61
2018-12-08T02:43:26.441Z,6.56
2018-12-08T02:44:26.587Z,6.66
2018-12-08T02:45:26.733Z,6.66
2018-12-08T02:46:26.879Z,6.77
2018-12-08T02:47:27.024Z,6.76
2018-12-08T02:48:27.174Z,6.76
2018-12-08T02:49:27.316Z,6.83
2018-12-08T02:50:27.461Z,6.84
2018-12-08T02:51:27.609Z,6.86
2018-12-08T02:52:27.762Z,6.79
2018-12-08T02:53:27.902Z,6.80
2018-12-08T02:54:28.049Z,6.84
2018-12-08T02:55:28.194Z,6.84
2018-12-08T02:56:28.342Z,6.95
2018-12-08T02:57:28.486Z,6.97
2018-12-08T02:58:28.631Z,6.90
2018-12-08T02:59:28.778Z,7.01
2018-12-08T03:00:29.003Z,7.05
2018-12-08T03:01:29.079Z,6.94
2018-12-08T03:02:29.208Z,7.02
2018-12-08T03:03:29.355Z,7.05
2018-12-08T03:04:29.502Z,7.05
2018-12-08T03:05:29.646Z,7.15
2018-12-08T03:06:29.791Z,7.22
2018-12-08T03:07:29.941Z,7.17
2018-12-08T03:08:30.084Z,7.17
2018-12-08T03:09:30.231Z,7.22
2018-12-08T03:10:30.380Z,7.13
2018-12-08T03:11:30.525Z,7.13
2018-12-08T03:12:30.674Z,7.17
2018-12-08T03:13:30.816Z,7.16
2018-12-08T03:14:30.966Z,7.19
2018-12-08T03:15:31.111Z,7.19
2018-12-08T03:16:31.259Z,7.19
2018-12-08T03:17:31.407Z,7.15
2018-12-08T03:18:31.552Z,7.12
2018-12-08T03:19:31.696Z,7.23
2018-12-08T03:20:31.845Z,7.24
2018-12-08T03:21:31.988Z,7.23
2018-12-08T03:22:32.132Z,7.16
2018-12-08T03:23:32.281Z,7.23
2018-12-08T03:24:32.431Z,7.17
2018-12-08T03:25:32.572Z,7.16
2018-12-08T03:26:32.717Z,7.17
2018-12-08T03:27:32.867Z,7.17
2018-12-08T03:28:33.012Z,7.19
2018-12-08T03:29:33.156Z,7.19
2018-12-08T03:30:33.308Z,7.09
2018-12-08T03:31:33.458Z,7.24
2018-12-08T03:32:33.599Z,7.17
2018-12-08T03:33:33.745Z,7.15
2018-12-08T03:34:33.892Z,7.19
2018-12-08T03:35:34.037Z,7.22
2018-12-08T03:36:34.185Z,7.09
2018-12-08T03:37:34.331Z,7.16
2018-12-08T03:38:34.477Z,7.17
2018-12-08T03:39:34.624Z,7.16
2018-12-08T03:40:34.771Z,7.15
2018-12-08T03:41:34.914Z,7.20
2018-12-08T03:42:35.063Z,7.19
2018-12-08T03:43:35.207Z,7.12
2018-12-08T03:44:35.354Z,7.12
2018-12-08T03:45:35.502Z,7.13
2018-12-08T03:46:35.644Z,7.12
2018-12-08T03:47:35.791Z,7.15
2018-12-08T03:48:35.938Z,7.02
2018-12-08T03:49:36.090Z,7.20
2018-12-08T03:50:36.231Z,7.13
2018-12-08T03:51:36.377Z,7.17
2018-12-08T03:52:36.523Z,7.07
2018-12-08T03:53:36.669Z,7.05
2018-12-08T03:54:36.820Z,7.12
2018-12-08T03:55:36.964Z,7.07
2018-12-08T03:56:37.112Z,7.05
2018-12-08T03:57:37.262Z,6.99
2018-12-08T03:58:37.406Z,7.05
2018-12-08T03:59:37.551Z,7.15
2018-12-08T04:00:37.696Z,7.07
2018-12-08T04:01:37.847Z,7.19
2018-12-08T04:02:37.994Z,7.13
2018-12-08T04:03:38.139Z,7.09
2018-12-08T04:04:38.286Z,7.13
2018-12-08T04:05:38.438Z,7.07
2018-12-08T04:06:38.572Z,7.12
2018-12-08T04:07:38.717Z,7.07
2018-12-08T04:08:38.866Z,7.05
2018-12-08T04:09:39.013Z,7.04
2018-12-08T04:10:39.160Z,7.05
2018-12-08T04:11:39.319Z,7.12
2018-12-08T04:12:39.455Z,7.05
2018-12-08T04:13:39.600Z,7.12
2018-12-08T04:14:39.754Z,7.16
2018-12-08T04:15:39.894Z,7.19
2018-12-08T04:16:40.045Z,7.19
2018-12-08T04:17:40.190Z,7.16
2018-12-08T04:18:40.335Z,7.19
2018-12-08T04:19:40.481Z,7.16
2018-12-08T04:20:40.632Z,7.09
2018-12-08T04:21:40.777Z,7.16
2018-12-08T04:22:40.928Z,7.15
2018-12-08T04:23:41.069Z,7.23
2018-12-08T04:24:41.215Z,7.12
2018-12-08T04:25:41.358Z,7.20
2018-12-08T04:26:41.523Z,7.20
2018-12-08T04:27:41.652Z,7.19
2018-12-08T04:28:41.797Z,7.17
2018-12-08T04:29:41.945Z,7.19
2018-12-08T04:30:42.095Z,7.13
2018-12-08T04:31:42.242Z,7.17
2018-12-08T04:32:42.387Z,7.15
2018-12-08T04:33:42.535Z,7.12
2018-12-08T04:34:42.681Z,7.04
2018-12-08T04:35:42.824Z,7.05
2018-12-08T04:36:42.972Z,7.09
2018-12-08T04:37:43.120Z,7.05
2018-12-08T04:38:43.265Z,7.05
2018-12-08T04:39:43.411Z,7.09
2018-12-08T04:40:43.560Z,7.08
2018-12-08T04:41:43.705Z,7.02
2018-12-08T04:42:43.863Z,7.07
2018-12-08T04:43:43.998Z,6.95
2018-12-08T04:44:44.145Z,7.05
2018-12-08T04:45:44.290Z,7.02
2018-12-08T04:46:44.435Z,6.98
2018-12-08T04:47:44.582Z,7.08
2018-12-08T04:48:44.729Z,7.02
2018-12-08T04:49:44.873Z,7.04
2018-12-08T04:50:45.017Z,6.99
2018-12-08T04:51:45.167Z,6.99
2018-12-08T04:52:45.309Z,6.99
2018-12-08T04:53:45.458Z,6.94
2018-12-08T04:54:45.605Z,7.01
2018-12-08T04:55:45.748Z,6.89
2018-12-08T04:56:45.895Z,6.99
2018-12-08T04:57:46.040Z,6.89
2018-12-08T04:58:46.189Z,6.87
2018-12-08T04:59:46.364Z,6.86
2018-12-08T05:00:46.475Z,6.95
2018-12-08T05:01:46.624Z,6.99
2018-12-08T05:02:46.771Z,6.97
2018-12-08T05:03:46.913Z,6.95
2018-12-08T05:04:47.065Z,6.99
2018-12-08T05:05:47.209Z,7.04
2018-12-08T05:06:47.357Z,7.05
2018-12-08T05:07:47.502Z,7.08
2018-12-08T05:08:47.647Z,7.04
2018-12-08T05:09:47.799Z,7.05
2018-12-08T05:10:47.941Z,7.01
2018-12-08T05:11:48.088Z,7.15
2018-12-08T05:12:48.236Z,7.07
2018-12-08T05:13:48.382Z,7.04
2018-12-08T05:14:48.529Z,7.04
2018-12-08T05:15:48.673Z,7.13
2018-12-08T05:16:48.819Z,7.02
2018-12-08T05:17:48.967Z,7.09
2018-12-08T05:18:49.118Z,7.12
2018-12-08T05:19:49.258Z,7.05
2018-12-08T05:20:49.404Z,7.12
2018-12-08T05:21:49.549Z,7.15
2018-12-08T05:22:49.696Z,7.22
2018-12-08T05:23:49.843Z,7.13
2018-12-08T05:24:49.990Z,7.20
2018-12-08T05:25:50.138Z,7.20
2018-12-08T05:26:50.285Z,7.22
2018-12-08T05:27:50.433Z,7.09
2018-12-08T05:28:50.579Z,7.07
2018-12-08T05:29:50.727Z,7.19
2018-12-08T05:30:50.872Z,7.23
2018-12-08T05:31:51.023Z,7.17
2018-12-08T05:32:51.167Z,7.24
2018-12-08T05:33:51.314Z,7.23
2018-12-08T05:34:51.460Z,7.23
2018-12-08T05:35:51.605Z,7.24
2018-12-08T05:36:51.752Z,7.19
2018-12-08T05:37:51.899Z,7.23
2018-12-08T05:38:52.044Z,7.16
2018-12-08T05:39:52.190Z,7.20
2018-12-08T05:40:52.362Z,7.23
2018-12-08T05:41:52.481Z,7.17
2018-12-08T05:42:52.627Z,7.22
2018-12-08T05:43:52.774Z,7.09
2018-12-08T05:44:52.919Z,7.22
2018-12-08T05:45:53.066Z,7.20
2018-12-08T05:46:53.203Z,7.20
2018-12-08T05:47:53.358Z,7.09
2018-12-08T05:48:53.507Z,7.16
2018-12-08T05:49:53.652Z,7.17
2018-12-08T05:50:53.800Z,7.17
2018-12-08T05:51:53.945Z,7.16
2018-12-08T05:52:54.095Z,7.19
2018-12-08T05:53:54.237Z,7.12
2018-12-08T05:54:54.384Z,7.13
2018-12-08T05:55:54.530Z,7.19
2018-12-08T05:56:54.677Z,7.16
2018-12-08T05:57:54.824Z,7.17
2018-12-08T05:58:54.969Z,7.20
2018-12-08T05:59:55.118Z,7.17
2018-12-08T06:00:55.263Z,7.13
2018-12-08T06:01:55.412Z,7.19
2018-12-08T06:02:55.556Z,7.19
2018-12-08T06:03:55.703Z,7.16
2018-12-08T06:04:55.852Z,7.17
2018-12-08T06:05:56.000Z,7.26
2018-12-08T06:06:56.148Z,7.24
2018-12-08T06:07:56.297Z,7.24
2018-12-08T06:08:56.440Z,7.22
2018-12-08T06:09:56.588Z,7.17
2018-12-08T06:10:56.735Z,7.16
2018-12-08T06:11:56.882Z,7.17
2018-12-08T06:12:57.028Z,7.17
2018-12-08T06:13:57.175Z,7.19
2018-12-08T06:14:57.324Z,7.16
2018-12-08T06:15:57.469Z,7.08
2018-12-08T06:16:57.615Z,7.22
2018-12-08T06:17:57.761Z,7.17
2018-12-08T06:18:57.907Z,7.15
2018-12-08T06:19:58.056Z,7.20
2018-12-08T06:20:58.296Z,7.17
2018-12-08T06:21:58.349Z,7.16
2018-12-08T06:22:58.497Z,7.15
2018-12-08T06:23:58.642Z,7.22
2018-12-08T06:24:58.790Z,7.07
2018-12-08T06:25:58.936Z,7.17
2018-12-08T06:26:59.082Z,7.15
2018-12-08T06:27:59.229Z,7.12
2018-12-08T06:28:59.380Z,7.15
2018-12-08T06:29:59.523Z,7.22
2018-12-08T06:30:59.673Z,7.16
2018-12-08T06:31:59.814Z,7.23
2018-12-08T06:32:59.965Z,7.17
2018-12-08T06:34:00.109Z,7.15
2018-12-08T06:35:00.258Z,7.13
2018-12-08T06:36:00.405Z,7.15
2018-12-08T06:37:00.557Z,7.26
2018-12-08T06:38:00.704Z,7.15
2018-12-08T06:39:00.852Z,7.19
2018-12-08T06:40:00.998Z,7.19
2018-12-08T06:41:01.145Z,7.24
2018-12-08T06:42:01.290Z,7.17
2018-12-08T06:43:01.438Z,7.19
2018-12-08T06:44:01.588Z,7.17
2018-12-08T06:45:01.730Z,7.15
2018-12-08T06:46:01.880Z,7.19
2018-12-08T06:47:02.029Z,7.19
2018-12-08T06:48:02.174Z,7.17
2018-12-08T06:49:02.319Z,7.22
2018-12-08T06:50:02.466Z,7.22
2018-12-08T06:51:02.612Z,7.22
2018-12-08T06:52:02.756Z,7.17
2018-12-08T06:53:02.907Z,7.20
2018-12-08T06:54:03.054Z,7.20
2018-12-08T06:55:03.203Z,7.17
2018-12-08T06:56:03.349Z,7.27
2018-12-08T06:57:03.496Z,7.12
2018-12-08T06:58:03.641Z,7.22
2018-12-08T06:59:03.788Z,7.23
2018-12-08T07:00:03.938Z,7.23
2018-12-08T07:01:04.078Z,7.16
2018-12-08T07:02:04.222Z,7.17
2018-12-08T07:03:04.440Z,7.20
2018-12-08T07:04:04.520Z,7.20
2018-12-08T07:05:04.666Z,7.12
2018-12-08T07:06:04.814Z,7.19
2018-12-08T07:07:04.961Z,7.17
2018-12-08T07:08:05.106Z,7.12
2018-12-08T07:09:05.255Z,7.09
2018-12-08T07:10:05.401Z,7.15
2018-12-08T07:11:05.548Z,7.13
2018-12-08T07:12:05.693Z,7.13
2018-12-08T07:13:05.843Z,7.09
2018-12-08T07:14:05.991Z,7.12
2018-12-08T07:15:06.138Z,7.20
2018-12-08T07:16:06.282Z,7.24
2018-12-08T07:17:06.432Z,7.17
2018-12-08T07:18:06.582Z,7.15
2018-12-08T07:19:06.727Z,7.23
2018-12-08T07:20:06.875Z,7.17
2018-12-08T07:21:07.025Z,7.23
2018-12-08T07:22:07.170Z,7.22
2018-12-08T07:23:07.318Z,7.16
2018-12-08T07:24:07.462Z,7.24
2018-12-08T07:25:07.609Z,7.26
2018-12-08T07:26:07.757Z,7.31
2018-12-08T07:27:07.904Z,7.26
2018-12-08T07:28:08.050Z,7.20
2018-12-08T07:29:08.197Z,7.23
2018-12-08T07:30:08.346Z,7.26
2018-12-08T07:31:08.491Z,7.24
2018-12-08T07:32:08.636Z,7.29
2018-12-08T07:33:08.782Z,7.27
2018-12-08T07:34:08.931Z,7.22
2018-12-08T07:35:09.086Z,7.27
2018-12-08T07:36:09.234Z,7.17
2018-12-08T07:37:09.379Z,7.23
2018-12-08T07:38:09.530Z,7.17
2018-12-08T07:39:09.676Z,7.24
2018-12-08T07:40:09.828Z,7.27
2018-12-08T07:41:09.967Z,7.22
2018-12-08T07:42:10.117Z,7.22
2018-12-08T07:43:10.264Z,7.20
2018-12-08T07:44:10.415Z,7.19
2018-12-08T07:45:10.559Z,7.16
2018-12-08T07:46:10.708Z,7.19
2018-12-08T07:47:10.856Z,7.16
2018-12-08T07:48:11.007Z,7.13
2018-12-08T07:49:11.152Z,7.12
2018-12-08T07:50:11.298Z,7.15
2018-12-08T07:51:11.449Z,7.08
2018-12-08T07:52:11.593Z,7.13
2018-12-08T07:53:11.744Z,7.07
2018-12-08T07:54:11.895Z,7.07
2018-12-08T07:55:12.041Z,7.12
2018-12-08T07:56:12.187Z,7.09
2018-12-08T07:57:12.331Z,7.12
2018-12-08T07:58:12.480Z,7.16
2018-12-08T07:59:12.628Z,7.05
2018-12-08T08:00:12.772Z,7.17
2018-12-08T08:01:12.921Z,7.05
2018-12-08T08:02:13.070Z,7.15
2018-12-08T08:03:13.221Z,7.07
2018-12-08T08:04:13.372Z,7.05
2018-12-08T08:05:13.517Z,7.09
2018-12-08T08:06:13.665Z,7.15
2018-12-08T08:07:13.808Z,7.16
2018-12-08T08:08:13.960Z,7.12
2018-12-08T08:09:14.107Z,7.15
2018-12-08T08:10:14.257Z,7.12
2018-12-08T08:11:14.399Z,7.05
2018-12-08T08:12:14.546Z,7.05
2018-12-08T08:13:14.697Z,7.05
2018-12-08T08:14:14.844Z,7.02
2018-12-08T08:15:14.996Z,7.05
2018-12-08T08:16:15.143Z,7.05
2018-12-08T08:17:15.287Z,7.13
2018-12-08T08:18:15.438Z,7.05
2018-12-08T08:19:15.584Z,6.94
2018-12-08T08:20:15.730Z,6.91
2018-12-08T08:21:15.877Z,6.95
2018-12-08T08:22:16.022Z,7.02
2018-12-08T08:23:16.173Z,6.91
2018-12-08T08:24:16.330Z,7.01
2018-12-08T08:25:16.509Z,6.91
2018-12-08T08:26:16.618Z,6.98
2018-12-08T08:27:16.764Z,6.99
2018-12-08T08:28:16.911Z,7.02
2018-12-08T08:29:17.059Z,7.02
2018-12-08T08:30:17.207Z,7.07
2018-12-08T08:31:17.413Z,7.02
2018-12-08T08:32:17.507Z,6.95
2018-12-08T08:33:17.659Z,7.01
2018-12-08T08:34:17.799Z,7.07
2018-12-08T08:35:17.949Z,7.02
2018-12-08T08:36:18.095Z,7.05
2018-12-08T08:37:18.251Z,7.08
2018-12-08T08:38:18.392Z,7.09
2018-12-08T08:39:18.541Z,7.07
2018-12-08T08:40:18.687Z,7.07
2018-12-08T08:41:18.833Z,7.09
2018-12-08T08:42:18.981Z,7.08
2018-12-08T08:43:19.134Z,7.08
2018-12-08T08:44:19.282Z,7.23
2018-12-08T08:45:19.429Z,7.24
2018-12-08T08:46:19.577Z,7.20
2018-12-08T08:47:19.726Z,7.19
2018-12-08T08:48:19.873Z,7.17
2018-12-08T08:49:20.021Z,7.23
2018-12-08T08:50:20.169Z,7.32
2018-12-08T08:51:20.317Z,7.23
2018-12-08T08:52:20.464Z,7.26
2018-12-08T08:53:20.611Z,7.29
2018-12-08T08:54:20.759Z,7.20
2018-12-08T08:55:20.908Z,7.19
2018-12-08T08:56:21.061Z,7.22
2018-12-08T08:57:21.209Z,7.22
2018-12-08T08:58:21.361Z,7.23
2018-12-08T08:59:21.488Z,7.24
2018-12-08T09:00:21.640Z,7.17
2018-12-08T09:01:21.791Z,7.23
2018-12-08T09:02:21.956Z,7.23
2018-12-08T09:03:22.100Z,7.26
2018-12-08T09:04:22.248Z,7.17
2018-12-08T09:05:22.398Z,7.23
2018-12-08T09:06:22.562Z,7.32
2018-12-08T09:07:22.693Z,7.20
2018-12-08T09:08:23.010Z,7.29
2018-12-08T09:09:23.027Z,7.22
2018-12-08T09:10:23.192Z,7.26
2018-12-08T09:11:23.355Z,7.20
2018-12-08T09:12:23.501Z,7.20
2018-12-08T09:13:23.653Z,7.17
2018-12-08T09:14:23.801Z,7.13
2018-12-08T09:15:23.950Z,7.17
2018-12-08T09:16:24.119Z,7.22
2018-12-08T09:17:24.279Z,7.24
2018-12-08T09:18:24.430Z,7.23
2018-12-08T09:19:24.604Z,7.17
2018-12-08T09:20:24.836Z,7.26
2018-12-08T09:21:24.931Z,7.19
2018-12-08T09:22:25.007Z,7.24
2018-12-08T09:23:25.170Z,7.23
2018-12-08T09:24:25.356Z,7.24
2018-12-08T09:25:25.588Z,7.22
2018-12-08T09:26:25.756Z,7.24
2018-12-08T09:27:25.806Z,7.29
2018-12-08T09:28:25.974Z,7.27
2018-12-08T09:29:26.123Z,7.24
2018-12-08T09:30:26.330Z,7.29
2018-12-08T09:31:26.392Z,7.31
2018-12-08T09:32:26.547Z,7.42
2018-12-08T09:33:26.763Z,7.41
2018-12-08T09:34:26.858Z,7.40
2018-12-08T09:35:27.015Z,7.40
2018-12-08T09:36:27.161Z,7.41
2018-12-08T09:37:27.309Z,7.42
2018-12-08T09:38:27.458Z,7.38
2018-12-08T09:39:27.615Z,7.49
2018-12-08T09:40:27.774Z,7.40
2018-12-08T09:41:27.931Z,7.35
2018-12-08T09:42:28.085Z,7.49
2018-12-08T09:43:28.238Z,7.47
2018-12-08T09:44:28.394Z,7.53
2018-12-08T09:45:28.552Z,7.38
2018-12-08T09:46:28.701Z,7.50
2018-12-08T09:47:28.856Z,7.45
2018-12-08T09:48:29.008Z,7.49
2018-12-08T09:49:29.147Z,7.52
2018-12-08T09:50:29.297Z,7.55
2018-12-08T09:51:29.445Z,7.55
2018-12-08T09:52:29.593Z,7.44
2018-12-08T09:53:29.743Z,7.49
2018-12-08T09:54:29.893Z,7.56
2018-12-08T09:55:30.040Z,7.45
2018-12-08T09:56:30.189Z,7.49
2018-12-08T09:57:30.339Z,7.44
2018-12-08T09:58:30.513Z,7.42
2018-12-08T09:59:30.672Z,7.40
2018-12-08T10:00:30.816Z,7.44
2018-12-08T10:01:30.962Z,7.44
2018-12-08T10:02:31.111Z,7.42
2018-12-08T10:03:31.255Z,7.42
2018-12-08T10:04:31.432Z,7.42
2018-12-08T10:05:31.614Z,7.45
2018-12-08T10:06:31.906Z,7.42
2018-12-08T10:07:32.850Z,7.52
2018-12-08T10:08:32.122Z,7.53
2018-12-08T10:09:32.285Z,7.50
2018-12-08T10:10:32.355Z,7.50
2018-12-08T10:11:32.554Z,7.49
2018-12-08T10:12:32.649Z,7.47
2018-12-08T10:13:32.758Z,7.52
2018-12-08T10:14:32.925Z,7.69
2018-12-08T10:15:33.025Z,7.69
2018-12-08T10:16:33.075Z,7.67
2018-12-08T10:17:33.357Z,7.69
2018-12-08T10:18:33.534Z,7.72
2018-12-08T10:19:33.574Z,7.71
2018-12-08T10:20:33.747Z,7.69
2018-12-08T10:21:33.932Z,7.75
2018-12-08T10:22:34.101Z,7.67
2018-12-08T10:23:34.263Z,7.81
2018-12-08T10:24:34.412Z,7.89
2018-12-08T10:25:34.618Z,8.00
2018-12-08T10:26:34.765Z,7.93
2018-12-08T10:27:34.904Z,7.85
2018-12-08T10:28:35.024Z,7.87
2018-12-08T10:29:35.176Z,7.85
2018-12-08T10:30:35.265Z,7.81
2018-12-08T10:31:35.297Z,7.79
2018-12-08T10:32:35.463Z,7.90
2018-12-08T10:33:35.611Z,7.87
2018-12-08T10:34:35.850Z,7.96
2018-12-08T10:35:36.027Z,8.00
2018-12-08T10:36:36.160Z,7.90
2018-12-08T10:37:36.320Z,8.03
2018-12-08T10:38:36.480Z,7.90
2018-12-08T10:39:36.561Z,7.90
2018-12-08T10:40:36.598Z,7.82
2018-12-08T10:41:36.783Z,7.89
2018-12-08T10:42:37.001Z,7.67
2018-12-08T10:43:37.106Z,7.66
2018-12-08T10:44:37.195Z,7.60
2018-12-08T10:45:37.353Z,7.62
2018-12-08T10:46:37.376Z,7.71
2018-12-08T10:47:37.555Z,7.78
2018-12-08T10:48:37.838Z,7.66
2018-12-08T10:49:37.934Z,7.60
2018-12-08T10:50:38.056Z,7.63
2018-12-08T10:51:38.166Z,7.63
2018-12-08T10:52:38.293Z,7.55
2018-12-08T10:53:38.455Z,7.53
2018-12-08T10:54:38.604Z,7.50
2018-12-08T10:55:38.644Z,7.55
2018-12-08T10:56:38.883Z,7.56
2018-12-08T10:57:38.980Z,7.56
2018-12-08T10:58:39.033Z,7.53
2018-12-08T10:59:39.282Z,7.63
2018-12-08T11:00:39.386Z,7.62
2018-12-08T11:01:39.521Z,7.66
2018-12-08T11:02:39.638Z,7.66
2018-12-08T11:03:39.684Z,7.56
2018-12-08T11:04:39.884Z,7.60
2018-12-08T11:05:40.100Z,7.72
2018-12-08T11:06:40.211Z,7.60
2018-12-08T11:07:40.369Z,7.67
2018-12-08T11:08:40.513Z,7.72
2018-12-08T11:09:40.639Z,7.71
2018-12-08T11:10:40.789Z,7.67
2018-12-08T11:11:40.924Z,7.74
2018-12-08T11:12:40.949Z,7.79
2018-12-08T11:13:41.094Z,7.82
2018-12-08T11:14:41.293Z,7.82
2018-12-08T11:15:41.602Z,7.79
2018-12-08T11:16:41.777Z,7.82
2018-12-08T11:17:41.862Z,7.84
2018-12-08T11:18:42.028Z,7.89
2018-12-08T11:19:42.172Z,7.77
2018-12-08T11:20:42.189Z,7.79
2018-12-08T11:21:42.347Z,7.85
2018-12-08T11:22:42.499Z,7.89
2018-12-08T11:23:42.647Z,7.84
2018-12-08T11:24:42.798Z,7.97
2018-12-08T11:25:43.048Z,7.93
2018-12-08T11:26:43.094Z,7.94
2018-12-08T11:27:43.245Z,8.02
2018-12-08T11:28:43.395Z,8.10
2018-12-08T11:29:43.543Z,8.20
2018-12-08T11:30:43.690Z,8.00
2018-12-08T11:31:43.839Z,8.03
2018-12-08T11:32:43.991Z,8.11
2018-12-08T11:33:44.138Z,8.10
2018-12-08T11:34:44.285Z,8.03
2018-12-08T11:35:44.532Z,8.08
2018-12-08T11:36:49.520Z,8.18
2018-12-08T11:37:44.702Z,8.29
2018-12-08T11:38:44.861Z,8.15
2018-12-08T11:39:45.015Z,8.26
2018-12-08T11:40:45.159Z,8.21
2018-12-08T11:41:45.308Z,8.18
2018-12-08T11:42:45.487Z,8.10
2018-12-08T11:43:45.598Z,8.12
2018-12-08T11:44:45.846Z,8.18
2018-12-08T11:45:45.875Z,8.15
2018-12-08T11:46:46.022Z,8.12
2018-12-08T11:47:46.170Z,8.12
2018-12-08T11:48:46.330Z,8.08
2018-12-08T11:49:46.573Z,8.12
2018-12-08T11:50:46.767Z,8.14
2018-12-08T11:51:46.863Z,8.14
2018-12-08T11:52:47.012Z,8.14
2018-12-08T11:53:47.177Z,8.18
2018-12-08T11:54:47.289Z,8.11
2018-12-08T11:55:47.331Z,8.03
2018-12-08T11:56:47.585Z,8.20
2018-12-08T11:57:47.654Z,8.10
2018-12-08T11:58:47.961Z,8.10
2018-12-08T11:59:48.007Z,8.03
2018-12-08T12:00:48.230Z,8.10
2018-12-08T12:01:48.343Z,8.17
2018-12-08T12:02:48.509Z,8.17
2018-12-08T12:03:48.589Z,8.22
2018-12-08T12:04:48.765Z,8.12
2018-12-08T12:05:48.953Z,8.22
2018-12-08T12:06:49.217Z,8.17
2018-12-08T12:07:49.287Z,8.18
2018-12-08T12:08:49.437Z,8.21
2018-12-08T12:09:49.691Z,8.22
2018-12-08T12:10:49.756Z,8.20
2018-12-08T12:11:49.996Z,8.20
2018-12-08T12:12:50.100Z,8.18
2018-12-08T12:13:51.134Z,8.20
2018-12-08T12:14:50.385Z,8.17
2018-12-08T12:15:50.483Z,8.20
2018-12-08T12:16:50.612Z,8.08
2018-12-08T12:17:50.715Z,8.14
2018-12-08T12:18:50.904Z,8.10
2018-12-08T12:19:51.005Z,8.08
2018-12-08T12:20:51.179Z,8.17
2018-12-08T12:21:51.315Z,8.17
2018-12-08T12:22:51.384Z,8.17
2018-12-08T12:23:51.631Z,8.08
2018-12-08T12:24:51.680Z,8.08
2018-12-08T12:25:51.827Z,8.21
2018-12-08T12:26:52.029Z,8.20
2018-12-08T12:27:52.178Z,8.20
2018-12-08T12:28:52.369Z,8.17
2018-12-08T12:29:52.558Z,8.17
2018-12-08T12:30:52.724Z,8.17
2018-12-08T12:31:52.805Z,8.21
2018-12-08T12:32:52.973Z,8.22
2018-12-08T12:33:53.167Z,8.17
2018-12-08T12:34:53.383Z,8.21
2018-12-08T12:35:53.513Z,8.15
2018-12-08T12:36:53.617Z,8.15
2018-12-08T12:37:53.712Z,8.18
2018-12-08T12:38:53.739Z,8.18
2018-12-08T12:39:53.881Z,8.22
2018-12-08T12:40:54.150Z,8.11
2018-12-08T12:41:54.178Z,8.18
2018-12-08T12:42:54.366Z,8.14
2018-12-08T12:43:54.568Z,8.12
2018-12-08T12:44:54.674Z,8.22
2018-12-08T12:45:54.760Z,8.17
2018-12-08T12:46:54.916Z,8.17
2018-12-08T12:47:55.055Z,8.21
2018-12-08T12:48:55.093Z,8.21
2018-12-08T12:49:55.253Z,8.15
2018-12-08T12:50:55.396Z,8.14
2018-12-08T12:51:55.556Z,8.18
2018-12-08T12:52:55.711Z,8.25
2018-12-08T12:53:55.875Z,8.28
2018-12-08T12:54:56.029Z,8.39
2018-12-08T12:55:56.177Z,8.44
2018-12-08T12:56:56.346Z,8.40
2018-12-08T12:57:56.499Z,8.29
2018-12-08T12:58:56.645Z,8.25
2018-12-08T12:59:56.856Z,8.17
2018-12-08T13:00:57.027Z,8.15
2018-12-08T13:01:57.050Z,8.15
2018-12-08T13:02:57.205Z,8.18
2018-12-08T13:03:57.349Z,8.18
2018-12-08T13:04:57.493Z,8.14
2018-12-08T13:05:57.648Z,8.17
2018-12-08T13:06:57.794Z,8.17
2018-12-08T13:07:57.945Z,8.12
2018-12-08T13:08:58.107Z,8.10
2018-12-08T13:09:58.252Z,8.04
2018-12-08T13:10:58.406Z,8.15
2018-12-08T13:11:58.571Z,8.18
2018-12-08T13:12:58.733Z,8.11
2018-12-08T13:13:58.892Z,8.11
2018-12-08T13:14:59.077Z,8.04
2018-12-08T13:15:59.295Z,8.03
2018-12-08T13:16:59.371Z,8.07
2018-12-08T13:17:59.528Z,8.10
2018-12-08T13:18:59.778Z,8.22
2018-12-08T13:19:59.856Z,8.17